This is the latest recevied weather packets stored in our database for station/object S54Z-11. If no packets are shown the sender has not sent any weather packets the latest 10 day(s).
| Time | Temp. | Humidity | Pressure | Rain* | Wind** | Luminosity | Snow |
|---|---|---|---|---|---|---|---|
| 1777347571 | 7.78° C | 70% | 1021 hPa | - | - | - | - |
| 1777346671 | 7.78° C | 69% | 1021.1 hPa | - | - | - | - |
| 1777345770 | 7.78° C | 71% | 1021 hPa | - | - | - | - |
| 1777344870 | 8.33° C | 68% | 1021.1 hPa | - | - | - | - |
| 1777343970 | 8.33° C | 69% | 1021.1 hPa | - | - | - | - |
| 1777343070 | 8.33° C | 69% | 1021.1 hPa | - | - | - | - |
| 1777342170 | 8.33° C | 68% | 1021.1 hPa | - | - | - | - |
| 1777341276 | 8.33° C | 68% | 1021.1 hPa | - | - | - | - |
| 1777340373 | 8.89° C | 65% | 1021.2 hPa | - | - | - | - |
| 1777339472 | 8.89° C | 64% | 1021.2 hPa | - | - | - | - |
| 1777338568 | 8.89° C | 64% | 1021.1 hPa | - | - | - | - |
| 1777337668 | 8.33° C | 66% | 1021 hPa | - | - | - | - |
| 1777336768 | 8.89° C | 63% | 1021.2 hPa | - | - | - | - |
| 1777335868 | 8.89° C | 62% | 1021.2 hPa | - | - | - | - |
| 1777334968 | 8.89° C | 60% | 1021.3 hPa | - | - | - | - |
| 1777334068 | 9.44° C | 60% | 1021.3 hPa | - | - | - | - |
| 1777333168 | 9.44° C | 60% | 1021.3 hPa | - | - | - | - |
| 1777332268 | 9.44° C | 56% | 1021.2 hPa | - | - | - | - |
| 1777331368 | 10° C | 55% | 1021.3 hPa | - | - | - | - |
| 1777330468 | 10.56° C | 53% | 1021.2 hPa | - | - | - | - |
| 1777329568 | 10.56° C | 53% | 1021.2 hPa | - | - | - | - |
| 1777328668 | 11.11° C | 52% | 1021.3 hPa | - | - | - | - |
| 1777327767 | 11.11° C | 50% | 1021.2 hPa | - | - | - | - |
| 1777326868 | 11.67° C | 50% | 1021.4 hPa | - | - | - | - |
| 1777325967 | 12.22° C | 46% | 1021.3 hPa | - | - | - | - |
* Rain since midnight (hover to see other rain measurements)
** Current wind speed in m/s (hover to see current wind gust speed)